createdAt,value
2023-05-19T00:01:37.622Z,3.85
2023-05-19T00:04:40.717Z,4.17
2023-05-19T00:07:45.375Z,4.10
2023-05-19T00:10:48.100Z,3.90
2023-05-19T00:13:51.186Z,3.88
2023-05-19T00:16:56.274Z,4.00
2023-05-19T00:19:58.812Z,4.30
2023-05-19T00:23:01.667Z,3.88
2023-05-19T00:26:04.228Z,3.88
2023-05-19T00:29:06.745Z,3.90
2023-05-19T00:32:10.260Z,3.88
2023-05-19T00:35:13.122Z,3.87
2023-05-19T00:38:15.638Z,4.05
2023-05-19T00:41:18.337Z,3.78
2023-05-19T00:44:20.816Z,4.20
2023-05-19T00:47:23.610Z,3.20
2023-05-19T00:50:27.439Z,3.97
2023-05-19T00:53:32.184Z,3.80
2023-05-19T00:56:35.191Z,3.60
2023-05-19T00:59:37.764Z,4.15
2023-05-19T01:02:40.977Z,3.78
2023-05-19T01:05:47.611Z,4.10
2023-05-19T01:08:51.822Z,3.95
2023-05-19T01:11:54.691Z,4.22
2023-05-19T01:14:59.316Z,4.45
2023-05-19T01:18:08.297Z,4.50
2023-05-19T01:21:36.494Z,4.53
2023-05-19T01:24:45.371Z,5.28
2023-05-19T01:28:00.824Z,5.03
2023-05-19T01:31:06.302Z,4.78
2023-05-19T01:34:12.165Z,4.90
2023-05-19T01:37:16.400Z,4.87
2023-05-19T01:40:21.490Z,5.03
2023-05-19T01:43:26.066Z,5.00
2023-05-19T01:46:28.645Z,5.32
2023-05-19T01:49:31.267Z,4.88
2023-05-19T01:52:33.896Z,4.93
2023-05-19T01:55:49.718Z,4.93
2023-05-19T01:59:03.830Z,5.00
2023-05-19T02:02:26.885Z,4.90
2023-05-19T02:05:53.637Z,4.85
2023-05-19T02:09:17.987Z,4.70
2023-05-19T02:12:28.422Z,4.72
2023-05-19T02:15:38.758Z,4.70
2023-05-19T02:18:45.529Z,5.28
2023-05-19T02:21:48.302Z,5.00
2023-05-19T02:24:51.884Z,4.70
2023-05-19T02:27:54.711Z,5.20
2023-05-19T02:30:57.193Z,5.50
2023-05-19T02:33:59.800Z,4.85
2023-05-19T02:37:02.320Z,4.97
2023-05-19T02:40:05.929Z,4.80
2023-05-19T02:43:08.455Z,5.25
2023-05-19T02:46:11.564Z,5.30
2023-05-19T02:49:14.126Z,5.25
2023-05-19T02:52:16.692Z,5.55
2023-05-19T02:55:19.557Z,4.90
2023-05-19T02:58:22.069Z,5.35
2023-05-19T03:01:24.640Z,5.85
2023-05-19T03:04:28.006Z,5.07
2023-05-19T03:07:30.671Z,4.82
2023-05-19T03:10:33.422Z,5.30
2023-05-19T03:13:36.147Z,5.30
2023-05-19T03:16:41.253Z,5.22
2023-05-19T03:19:43.902Z,5.07
2023-05-19T03:22:46.408Z,5.32
2023-05-19T03:25:48.901Z,5.70
2023-05-19T03:28:51.425Z,5.45
2023-05-19T03:31:54.058Z,4.97
2023-05-19T03:34:56.586Z,5.10
2023-05-19T03:37:59.209Z,4.97
2023-05-19T03:41:01.798Z,5.47
2023-05-19T03:44:04.412Z,5.45
2023-05-19T03:47:07.075Z,6.00
2023-05-19T03:50:29.234Z,5.40
2023-05-19T03:53:38.229Z,5.60
2023-05-19T03:56:43.237Z,5.73
2023-05-19T03:59:46.064Z,4.88
2023-05-19T04:02:48.794Z,4.82
2023-05-19T04:05:52.032Z,4.20
2023-05-19T04:08:54.649Z,4.55
2023-05-19T04:11:57.100Z,4.33
2023-05-19T04:15:00.601Z,4.35
2023-05-19T04:18:03.064Z,4.68
2023-05-19T04:21:06.061Z,3.95
2023-05-19T04:24:09.046Z,4.53
2023-05-19T04:27:12.435Z,3.93
2023-05-19T04:30:22.368Z,4.70
2023-05-19T04:33:25.901Z,3.90
2023-05-19T04:36:28.556Z,4.07
2023-05-19T04:39:31.388Z,3.90
2023-05-19T04:42:34.997Z,4.03
2023-05-19T04:45:42.614Z,3.83
2023-05-19T04:48:46.795Z,3.50
2023-05-19T04:51:50.573Z,3.78
2023-05-19T04:54:57.340Z,3.28
2023-05-19T04:58:00.927Z,3.50
2023-05-19T05:01:04.182Z,3.10
2023-05-19T05:04:07.358Z,3.45
2023-05-19T05:07:11.034Z,3.63
2023-05-19T05:10:14.399Z,3.38
2023-05-19T05:13:17.283Z,3.90
2023-05-19T05:16:20.145Z,4.93
2023-05-19T05:19:23.099Z,4.43
2023-05-19T05:22:26.156Z,4.03
2023-05-19T05:25:29.748Z,4.22
2023-05-19T05:28:32.858Z,3.93
2023-05-19T05:31:37.037Z,4.38
2023-05-19T05:34:41.085Z,3.78
2023-05-19T05:37:43.677Z,4.10
2023-05-19T05:40:46.339Z,4.32
2023-05-19T05:43:49.482Z,4.37
2023-05-19T05:46:52.622Z,4.60
2023-05-19T05:49:56.534Z,4.78
2023-05-19T05:53:01.550Z,4.57
2023-05-19T05:56:04.731Z,4.80
2023-05-19T05:59:15.586Z,5.07
2023-05-19T06:02:19.132Z,5.10
2023-05-19T06:05:22.060Z,4.50
2023-05-19T06:08:25.766Z,4.45
2023-05-19T06:11:28.905Z,5.20
2023-05-19T06:14:34.017Z,5.00
2023-05-19T06:17:59.249Z,5.38
2023-05-19T06:21:03.562Z,4.80
2023-05-19T06:24:07.592Z,4.85
2023-05-19T06:27:10.212Z,4.63
2023-05-19T06:30:14.029Z,4.93
2023-05-19T06:33:34.851Z,5.07
2023-05-19T06:36:37.448Z,5.28
2023-05-19T06:39:40.180Z,5.40
2023-05-19T06:42:42.641Z,5.03
2023-05-19T06:46:13.182Z,4.73
2023-05-19T06:49:16.077Z,5.63
2023-05-19T06:52:22.407Z,5.40
2023-05-19T06:55:25.213Z,5.13
2023-05-19T06:58:28.111Z,5.63
2023-05-19T07:01:31.891Z,5.37
2023-05-19T07:04:36.716Z,5.18
2023-05-19T07:07:39.559Z,5.70
2023-05-19T07:10:46.742Z,5.47
2023-05-19T07:13:51.533Z,5.60
2023-05-19T07:17:00.416Z,5.97
2023-05-19T07:20:06.740Z,5.07
2023-05-19T07:23:09.396Z,5.80
2023-05-19T07:26:12.439Z,4.85
2023-05-19T07:29:15.030Z,5.15
2023-05-19T07:32:17.595Z,5.00
2023-05-19T07:35:22.641Z,5.32
2023-05-19T07:38:25.874Z,4.53
2023-05-19T07:41:28.572Z,4.97
2023-05-19T07:44:31.646Z,5.10
2023-05-19T07:47:34.252Z,5.57
2023-05-19T07:50:37.167Z,5.13
2023-05-19T07:53:39.709Z,5.60
2023-05-19T07:56:42.768Z,5.07
2023-05-19T07:59:45.699Z,4.40
2023-05-19T08:02:48.377Z,4.20
2023-05-19T08:05:51.064Z,4.05
2023-05-19T08:08:54.312Z,3.83
2023-05-19T08:11:56.832Z,4.35
2023-05-19T08:15:01.305Z,4.30
2023-05-19T08:19:08.660Z,3.70
2023-05-19T08:22:11.302Z,2.90
2023-05-19T08:25:13.897Z,2.90
2023-05-19T08:28:16.508Z,3.30
2023-05-19T08:31:19.730Z,2.67
2023-05-19T08:34:22.496Z,2.97
2023-05-19T08:37:24.997Z,2.90
2023-05-19T08:40:31.539Z,3.15
2023-05-19T08:43:34.525Z,2.92
2023-05-19T08:46:37.187Z,2.75
2023-05-19T08:49:49.943Z,2.67
2023-05-19T08:53:01.839Z,2.42
2023-05-19T08:56:24.976Z,2.72
2023-05-19T08:59:27.838Z,2.75
2023-05-19T09:02:31.347Z,2.63
2023-05-19T09:05:34.700Z,2.60
2023-05-19T09:08:37.672Z,2.80
2023-05-19T09:11:40.328Z,2.80
2023-05-19T09:14:43.007Z,2.35
2023-05-19T09:17:48.152Z,2.88
2023-05-19T09:20:51.026Z,2.60
2023-05-19T09:23:55.845Z,2.70
2023-05-19T09:27:00.112Z,2.60
2023-05-19T09:30:09.344Z,2.80
2023-05-19T09:33:19.589Z,2.63
2023-05-19T09:36:22.110Z,2.97
2023-05-19T09:39:25.532Z,2.50
2023-05-19T09:42:29.887Z,2.33
2023-05-19T09:45:32.593Z,2.80
2023-05-19T09:48:36.580Z,2.58
2023-05-19T09:51:41.862Z,2.50
2023-05-19T09:54:45.354Z,2.55
2023-05-19T09:57:47.940Z,2.40
2023-05-19T10:00:51.078Z,2.47
2023-05-19T10:03:53.794Z,2.55
2023-05-19T10:06:59.849Z,2.40
2023-05-19T10:10:03.325Z,2.30
2023-05-19T10:13:06.370Z,2.40
2023-05-19T10:16:10.030Z,2.50
2023-05-19T10:19:14.284Z,2.63
2023-05-19T10:22:16.902Z,2.70
2023-05-19T10:25:20.151Z,2.80
2023-05-19T10:28:26.677Z,2.88
2023-05-19T10:31:31.682Z,2.50
2023-05-19T10:34:37.967Z,2.40
2023-05-19T10:37:46.584Z,2.60
2023-05-19T10:41:02.359Z,2.90
2023-05-19T10:44:32.126Z,2.60
2023-05-19T10:47:47.296Z,2.40
2023-05-19T10:51:02.428Z,2.83
2023-05-19T10:54:16.649Z,2.60
2023-05-19T11:02:11.229Z,2.40
2023-05-19T11:05:42.632Z,2.65
2023-05-19T11:10:02.244Z,2.45
2023-05-19T11:13:26.263Z,2.70
2023-05-19T11:17:08.048Z,2.50
2023-05-19T11:24:35.458Z,2.88
2023-05-19T11:27:40.693Z,2.78
2023-05-19T11:31:31.538Z,2.70
2023-05-19T11:34:40.622Z,2.60
2023-05-19T11:37:46.836Z,2.67
2023-05-19T11:40:54.952Z,2.33
2023-05-19T11:43:58.712Z,2.70
2023-05-19T11:47:02.450Z,2.27
2023-05-19T11:50:12.811Z,2.40
2023-05-19T11:53:17.200Z,2.50
2023-05-19T11:56:20.501Z,2.15
2023-05-19T11:59:39.453Z,2.30
2023-05-19T12:02:43.056Z,2.70
2023-05-19T12:05:49.177Z,2.60
2023-05-19T12:09:08.337Z,3.00
2023-05-19T12:12:33.403Z,2.58
2023-05-19T12:15:36.906Z,2.20
2023-05-19T12:18:40.526Z,2.13
2023-05-19T12:21:43.539Z,2.70
2023-05-19T12:24:47.327Z,2.10
2023-05-19T12:27:52.937Z,1.98
2023-05-19T12:30:58.854Z,2.38
2023-05-19T12:34:01.991Z,3.13
2023-05-19T12:37:05.807Z,2.35
2023-05-19T12:40:09.575Z,2.10
2023-05-19T12:43:24.183Z,1.95
2023-05-19T12:46:26.833Z,2.08
2023-05-19T12:49:29.611Z,2.30
2023-05-19T12:52:35.461Z,2.60
2023-05-19T12:55:45.735Z,3.00
2023-05-19T12:58:54.636Z,2.05
2023-05-19T13:01:59.850Z,2.58
2023-05-19T13:05:04.968Z,2.20
2023-05-19T13:08:09.710Z,2.45
2023-05-19T13:11:12.306Z,1.75
2023-05-19T13:14:15.855Z,2.08
2023-05-19T13:17:19.514Z,2.72
2023-05-19T13:20:22.161Z,2.33
2023-05-19T13:23:25.751Z,2.50
2023-05-19T13:26:28.249Z,1.98
2023-05-19T13:29:30.828Z,2.10
2023-05-19T13:32:33.663Z,2.25
2023-05-19T13:35:39.515Z,2.20
2023-05-19T13:38:42.019Z,2.45
2023-05-19T13:41:44.629Z,2.30
2023-05-19T13:44:47.268Z,2.25
2023-05-19T13:47:49.786Z,2.35
2023-05-19T13:50:54.415Z,2.10
2023-05-19T13:53:56.849Z,2.40
2023-05-19T13:57:00.263Z,2.40
2023-05-19T14:00:04.603Z,2.38
2023-05-19T14:03:19.708Z,2.35
2023-05-19T14:06:22.575Z,1.97
2023-05-19T14:09:25.141Z,1.90
2023-05-19T14:12:38.098Z,2.45
2023-05-19T14:15:42.226Z,2.20
2023-05-19T14:18:44.774Z,2.20
2023-05-19T14:21:47.291Z,2.17
2023-05-19T14:24:49.766Z,2.50
2023-05-19T14:27:52.305Z,2.53
2023-05-19T14:30:54.912Z,2.38
2023-05-19T14:33:57.419Z,2.20
2023-05-19T14:37:00.021Z,2.20
2023-05-19T14:40:04.067Z,2.10
2023-05-19T14:43:06.923Z,2.38
2023-05-19T14:46:09.446Z,2.08
2023-05-19T14:49:11.895Z,2.08
2023-05-19T14:52:14.436Z,2.30
2023-05-19T14:55:16.962Z,2.90
2023-05-19T14:58:27.509Z,2.40
2023-05-19T15:01:31.186Z,2.30
2023-05-19T15:04:33.705Z,2.42
2023-05-19T15:07:36.447Z,2.60
2023-05-19T15:10:38.984Z,2.45
2023-05-19T15:13:41.497Z,2.30
2023-05-19T15:16:44.065Z,2.47
2023-05-19T15:19:46.710Z,2.45
2023-05-19T15:22:49.250Z,2.43
2023-05-19T15:25:53.119Z,2.10
2023-05-19T15:28:56.090Z,2.30
2023-05-19T15:31:59.102Z,2.40
2023-05-19T15:35:01.647Z,2.40
2023-05-19T15:38:06.385Z,2.20
2023-05-19T15:41:09.666Z,2.10
2023-05-19T15:44:12.334Z,2.40
2023-05-19T15:47:14.812Z,2.17
2023-05-19T15:50:17.598Z,2.28
2023-05-19T15:53:20.374Z,2.20
2023-05-19T15:56:22.862Z,2.30
2023-05-19T15:59:25.493Z,1.98
2023-05-19T16:02:28.134Z,2.40
2023-05-19T16:05:30.901Z,2.20
2023-05-19T16:08:33.465Z,2.00
2023-05-19T16:11:36.008Z,2.20
2023-05-19T16:14:38.559Z,2.20
2023-05-19T16:17:41.242Z,2.33
2023-05-19T16:20:44.180Z,2.47
2023-05-19T16:23:46.645Z,2.50
2023-05-19T16:26:49.165Z,2.20
2023-05-19T16:29:51.662Z,2.30
2023-05-19T16:32:54.685Z,2.40
2023-05-19T16:35:58.440Z,2.35
2023-05-19T16:39:00.983Z,2.17
2023-05-19T16:42:04.676Z,2.42
2023-05-19T16:45:07.757Z,2.03
2023-05-19T16:48:10.257Z,2.60
2023-05-19T16:51:12.875Z,2.22
2023-05-19T16:54:15.357Z,2.37
2023-05-19T16:57:19.030Z,2.72
2023-05-19T17:00:21.471Z,2.60
2023-05-19T17:03:24.189Z,2.50
2023-05-19T17:06:26.746Z,2.58
2023-05-19T17:09:29.184Z,2.43
2023-05-19T17:12:31.714Z,3.35
2023-05-19T17:15:35.017Z,2.80
2023-05-19T17:18:37.624Z,2.80
2023-05-19T17:21:40.563Z,3.10
2023-05-19T17:24:43.012Z,3.03
2023-05-19T17:27:45.517Z,3.00
2023-05-19T17:30:47.951Z,3.03
2023-05-19T17:33:51.026Z,3.10
2023-05-19T17:36:53.480Z,3.25
2023-05-19T17:39:55.997Z,3.27
2023-05-19T17:42:58.452Z,3.00
2023-05-19T17:46:01.331Z,3.40
2023-05-19T17:49:04.051Z,3.45
2023-05-19T17:52:07.144Z,3.10
2023-05-19T17:55:11.304Z,3.20
2023-05-19T17:58:14.068Z,3.60
2023-05-19T18:01:17.973Z,3.53
2023-05-19T18:04:20.872Z,3.70
2023-05-19T18:07:26.381Z,3.30
2023-05-19T18:10:29.934Z,4.37
2023-05-19T18:13:32.372Z,4.05
2023-05-19T18:16:35.130Z,3.95
2023-05-19T18:19:37.576Z,4.10
2023-05-19T18:22:40.039Z,4.22
2023-05-19T18:25:49.489Z,4.23
2023-05-19T18:28:51.963Z,4.57
2023-05-19T18:31:54.504Z,4.53
2023-05-19T18:34:57.047Z,5.07
2023-05-19T18:37:59.566Z,4.22
2023-05-19T18:41:02.527Z,4.13
2023-05-19T18:44:07.922Z,4.30
2023-05-19T18:47:10.519Z,4.72
2023-05-19T18:50:13.221Z,4.30
2023-05-19T18:53:16.014Z,4.68
2023-05-19T18:56:28.510Z,4.63
2023-05-19T18:59:31.161Z,4.65
2023-05-19T19:02:33.607Z,4.93
2023-05-19T19:05:36.378Z,4.93
2023-05-19T19:08:38.842Z,5.07
2023-05-19T19:11:41.614Z,4.80
2023-05-19T19:14:44.186Z,5.28
2023-05-19T19:17:47.068Z,4.90
2023-05-19T19:20:49.675Z,4.90
2023-05-19T19:23:56.498Z,4.97
2023-05-19T19:26:59.025Z,5.10
2023-05-19T19:30:01.881Z,5.63
2023-05-19T19:33:04.863Z,6.47
2023-05-19T19:36:11.907Z,5.60
2023-05-19T19:39:14.365Z,5.28
2023-05-19T19:42:17.010Z,5.50
2023-05-19T19:45:20.909Z,5.60
2023-05-19T19:48:23.382Z,5.72
2023-05-19T19:51:26.470Z,6.05
2023-05-19T19:54:29.090Z,6.40
2023-05-19T19:57:31.684Z,6.03
2023-05-19T20:00:34.457Z,6.13
2023-05-19T20:03:37.517Z,7.00
2023-05-19T20:06:40.258Z,6.60
2023-05-19T20:09:42.811Z,7.07
2023-05-19T20:12:47.239Z,6.97
2023-05-19T20:15:50.250Z,6.32
2023-05-19T20:18:52.863Z,6.45
2023-05-19T20:21:55.442Z,6.28
2023-05-19T20:24:58.001Z,6.85
2023-05-19T20:28:02.073Z,6.73
2023-05-19T20:31:05.151Z,6.30
2023-05-19T20:34:07.674Z,6.35
2023-05-19T20:37:10.153Z,6.43
2023-05-19T20:40:12.877Z,6.22
2023-05-19T20:43:15.388Z,5.37
2023-05-19T20:46:17.962Z,5.57
2023-05-19T20:49:20.639Z,5.88
2023-05-19T20:52:23.125Z,5.13
2023-05-19T20:55:25.837Z,5.70
2023-05-19T20:58:30.321Z,5.17
2023-05-19T21:01:32.906Z,5.80
2023-05-19T21:04:36.389Z,5.43
2023-05-19T21:07:38.957Z,4.85
2023-05-19T21:10:41.690Z,5.10
2023-05-19T21:13:44.352Z,5.40
2023-05-19T21:16:51.340Z,5.28
2023-05-19T21:19:58.039Z,5.68
2023-05-19T21:23:00.720Z,5.82
2023-05-19T21:26:04.325Z,5.68
2023-05-19T21:29:07.734Z,5.57
2023-05-19T21:32:10.313Z,5.28
2023-05-19T21:35:12.874Z,5.45
2023-05-19T21:38:23.434Z,5.72
2023-05-19T21:41:26.801Z,5.90
2023-05-19T21:44:29.392Z,6.70
2023-05-19T21:47:31.934Z,7.10
2023-05-19T21:50:37.901Z,7.05
2023-05-19T21:53:40.367Z,7.18
2023-05-19T21:56:42.821Z,7.60
2023-05-19T21:59:45.519Z,7.70
2023-05-19T22:02:48.187Z,8.90
2023-05-19T22:05:52.488Z,8.82
2023-05-19T22:08:55.065Z,8.52
2023-05-19T22:11:57.646Z,8.48
2023-05-19T22:15:00.888Z,9.50
2023-05-19T22:18:03.615Z,9.38
2023-05-19T22:21:06.768Z,9.60
2023-05-19T22:24:09.324Z,8.98
2023-05-19T22:27:12.674Z,8.90
2023-05-19T22:30:15.791Z,8.17
2023-05-19T22:33:18.357Z,8.73
2023-05-19T22:36:21.005Z,8.13
2023-05-19T22:39:23.487Z,7.90
2023-05-19T22:42:26.925Z,6.68
2023-05-19T22:45:29.433Z,6.00
2023-05-19T22:48:31.906Z,5.90
2023-05-19T22:51:34.402Z,5.93
2023-05-19T22:54:38.040Z,5.70
2023-05-19T22:57:40.545Z,5.97
2023-05-19T23:00:42.964Z,5.70
2023-05-19T23:03:45.480Z,5.38
2023-05-19T23:06:49.975Z,5.50
2023-05-19T23:09:52.981Z,5.90
2023-05-19T23:12:55.486Z,5.75
2023-05-19T23:15:58.500Z,5.03
2023-05-19T23:19:01.128Z,5.25
2023-05-19T23:22:03.812Z,5.32
2023-05-19T23:25:07.866Z,4.85
2023-05-19T23:28:11.029Z,5.32
2023-05-19T23:31:13.709Z,4.87
2023-05-19T23:34:16.376Z,5.38
2023-05-19T23:37:18.874Z,5.28
2023-05-19T23:40:21.383Z,5.43
2023-05-19T23:43:24.094Z,5.18
2023-05-19T23:46:26.811Z,5.50
2023-05-19T23:49:29.454Z,5.40
2023-05-19T23:52:32.796Z,5.57
2023-05-19T23:55:35.672Z,5.43
2023-05-19T23:58:38.411Z,5.47
